West Pointe A la Hache, Louisiana
Current Conditions -  °F | °C
As of 8:45 AM on Wednesday 26 Nov 2014 (Local Time) from K1B7 Reporting Station
Clear Clear  
Wind Chill: 54°   Ceiling: Unl
Heat Index: 54°   Visibility: 10mi
Dew Point: 36°   Wind: 2mph
Humidity: 51%   Direction: NA
Pressure: 30.29"   Gusts: NA
Location:  29.4927°N, 89.8165°W
Report Text: K1B7 261445Z VRB02KT 10SM SKC 12/02 A3029
Loading
Personal Weather Stations






























Interactive Weather Map New forecast layout! Learn more

10-Day Weather Forecast

Advertisements
Track Severe Weather on mobile